createdAt,value
2019-02-26T00:00:26.655Z,100874.47
2019-02-26T00:05:47.825Z,100874.53
2019-02-26T00:10:58.599Z,100875.94
2019-02-26T00:16:05.592Z,100875.58
2019-02-26T00:21:10.471Z,100866.59
2019-02-26T00:26:17.761Z,100856.66
2019-02-26T00:31:24.288Z,100846.73
2019-02-26T00:36:34.183Z,100860.72
2019-02-26T00:41:58.864Z,100846.03
2019-02-26T00:47:23.011Z,100851.05
2019-02-26T00:52:30.371Z,100835.31
2019-02-26T00:57:38.448Z,100837.92
2019-02-26T01:02:44.025Z,100838.91
2019-02-26T01:07:52.105Z,100858.28
2019-02-26T01:12:58.663Z,100854.64
2019-02-26T01:18:20.723Z,100850.45
2019-02-26T01:23:28.968Z,100828.64
2019-02-26T01:28:44.149Z,100828.64
2019-02-26T01:34:09.775Z,100812.86
2019-02-26T01:39:16.352Z,100804.00
2019-02-26T01:44:28.096Z,100786.78
2019-02-26T01:49:31.594Z,100786.78
2019-02-26T01:54:39.170Z,100780.67
2019-02-26T01:59:44.415Z,100767.72
2019-02-26T02:04:50.383Z,100761.67
2019-02-26T02:09:58.266Z,100759.69
2019-02-26T02:15:08.087Z,100766.80
2019-02-26T02:20:19.385Z,100750.36
2019-02-26T02:25:23.200Z,100732.91
2019-02-26T02:30:31.379Z,100737.25
2019-02-26T02:35:36.270Z,100737.25
2019-02-26T02:40:43.304Z,100744.55
2019-02-26T02:45:49.975Z,100744.55
2019-02-26T02:50:56.318Z,100754.59
2019-02-26T02:56:03.746Z,100754.59
2019-02-26T03:01:10.256Z,100756.67
2019-02-26T03:06:15.867Z,100768.36
2019-02-26T03:11:22.112Z,100768.03
2019-02-26T03:16:27.721Z,100768.03
2019-02-26T03:21:33.223Z,100765.77
2019-02-26T03:26:38.762Z,100766.54
2019-02-26T03:31:47.130Z,100766.54
2019-02-26T03:36:51.554Z,100750.70
2019-02-26T03:41:57.184Z,100741.36
2019-02-26T03:47:03.226Z,100741.27
2019-02-26T03:52:08.820Z,100741.27
2019-02-26T03:57:16.642Z,100747.06
2019-02-26T04:02:23.491Z,100764.48
2019-02-26T04:07:30.251Z,100787.61
2019-02-26T04:12:41.836Z,100787.61
2019-02-26T04:17:44.485Z,100780.38
2019-02-26T04:22:53.293Z,100783.45
2019-02-26T04:28:40.429Z,100770.90
2019-02-26T04:34:31.371Z,100766.59
2019-02-26T04:40:14.301Z,100766.34
2019-02-26T04:46:17.805Z,100731.97
2019-02-26T04:51:35.853Z,100733.82
2019-02-26T04:56:42.833Z,100741.02
2019-02-26T05:01:49.910Z,100750.66
2019-02-26T05:06:55.728Z,100758.25
2019-02-26T05:12:03.585Z,100777.91
2019-02-26T05:17:11.633Z,100784.11
2019-02-26T05:22:19.834Z,100769.77
2019-02-26T05:27:25.432Z,100761.25
2019-02-26T05:32:33.397Z,100740.22
2019-02-26T05:37:40.992Z,100736.38
2019-02-26T05:42:49.699Z,100738.73
2019-02-26T05:47:58.668Z,100726.56
2019-02-26T05:53:05.524Z,100727.48
2019-02-26T05:58:12.573Z,100717.03
2019-02-26T06:03:19.828Z,100707.44
2019-02-26T06:08:32.282Z,100715.80
2019-02-26T06:13:38.266Z,100737.30
2019-02-26T06:18:46.511Z,100733.36
2019-02-26T06:23:55.715Z,100736.31
2019-02-26T06:29:03.055Z,100734.36
2019-02-26T06:34:11.298Z,100734.70
2019-02-26T06:39:20.257Z,100757.02
2019-02-26T06:44:47.138Z,100757.56
2019-02-26T06:49:54.223Z,100755.30
2019-02-26T06:55:03.545Z,100755.97
2019-02-26T07:00:26.918Z,100760.84
2019-02-26T07:05:33.659Z,100760.84
2019-02-26T07:10:39.569Z,100762.72
2019-02-26T07:15:45.424Z,100758.75
2019-02-26T07:20:53.134Z,100748.84
2019-02-26T07:26:00.349Z,100732.66
2019-02-26T07:31:08.123Z,100727.43
2019-02-26T07:36:13.592Z,100708.21
2019-02-26T07:41:31.492Z,100724.25
2019-02-26T07:46:38.515Z,100722.11
2019-02-26T07:51:44.346Z,100736.03
2019-02-26T07:56:52.361Z,100734.50
2019-02-26T08:01:57.544Z,100744.67
2019-02-26T08:07:03.778Z,100749.20
2019-02-26T08:12:11.254Z,100747.62
2019-02-26T08:17:17.717Z,100748.59
2019-02-26T08:22:24.837Z,100743.45
2019-02-26T08:27:33.853Z,100749.73
2019-02-26T08:32:40.088Z,100759.22
2019-02-26T08:37:46.099Z,100760.08
2019-02-26T08:42:54.880Z,100764.81
2019-02-26T08:48:26.439Z,100776.33
2019-02-26T08:53:31.803Z,100765.41
2019-02-26T08:58:37.529Z,100765.31
2019-02-26T09:03:43.957Z,100775.60
2019-02-26T09:08:49.912Z,100781.31
2019-02-26T09:13:59.523Z,100779.22
2019-02-26T09:19:07.232Z,100778.27
2019-02-26T09:24:12.790Z,100775.77
2019-02-26T09:29:19.768Z,100772.64
2019-02-26T09:34:28.707Z,100763.66
2019-02-26T09:39:36.321Z,100764.86
2019-02-26T09:44:42.601Z,100772.47
2019-02-26T09:49:49.455Z,100770.53
2019-02-26T09:54:55.612Z,100781.09
2019-02-26T10:00:06.030Z,100782.69
2019-02-26T10:05:14.102Z,100776.66
2019-02-26T10:10:20.720Z,100774.77
2019-02-26T10:15:45.274Z,100759.39
2019-02-26T10:21:09.198Z,100776.31
2019-02-26T10:26:18.647Z,100771.20
2019-02-26T10:31:27.493Z,100784.50
2019-02-26T10:36:34.765Z,100787.40
2019-02-26T10:41:41.808Z,100776.91
2019-02-26T10:46:47.258Z,100777.97
2019-02-26T10:51:52.854Z,100780.26
2019-02-26T10:57:00.433Z,100789.53
2019-02-26T11:02:06.794Z,100779.15
2019-02-26T11:07:14.208Z,100773.69
2019-02-26T11:12:33.986Z,100754.89
2019-02-26T11:17:38.683Z,100747.45
2019-02-26T11:22:49.754Z,100747.47
2019-02-26T11:27:55.978Z,100746.21
2019-02-26T11:33:38.360Z,100747.16
2019-02-26T11:38:47.066Z,100738.01
2019-02-26T11:43:53.183Z,100731.52
2019-02-26T11:48:58.771Z,100725.66
2019-02-26T11:54:17.691Z,100725.43
2019-02-26T11:59:23.864Z,100724.98
2019-02-26T12:04:29.501Z,100715.16
2019-02-26T12:09:38.548Z,100708.14
2019-02-26T12:14:47.949Z,100696.09
2019-02-26T12:19:53.432Z,100688.27
2019-02-26T12:25:01.837Z,100673.89
2019-02-26T12:30:10.701Z,100674.53
2019-02-26T12:35:17.963Z,100665.22
2019-02-26T12:40:25.529Z,100671.31
2019-02-26T12:45:31.808Z,100676.86
2019-02-26T12:50:40.479Z,100674.77
2019-02-26T12:55:45.641Z,100668.37
2019-02-26T13:00:51.302Z,100670.16
2019-02-26T13:05:56.861Z,100663.87
2019-02-26T13:11:02.534Z,100645.36
2019-02-26T13:16:16.690Z,100651.17
2019-02-26T13:21:23.375Z,100649.25
2019-02-26T13:27:00.982Z,100648.92
2019-02-26T13:32:13.098Z,100664.74
2019-02-26T13:37:15.608Z,100657.80
2019-02-26T13:42:21.637Z,100653.36
2019-02-26T13:47:31.086Z,100656.14
2019-02-26T13:52:37.053Z,100645.55
2019-02-26T13:57:42.607Z,100649.42
2019-02-26T14:02:50.222Z,100643.34
2019-02-26T14:07:56.139Z,100645.92
2019-02-26T14:13:03.807Z,100634.42
2019-02-26T14:18:11.258Z,100635.53
2019-02-26T14:23:34.984Z,100635.48
2019-02-26T14:28:44.108Z,100622.33
2019-02-26T14:33:57.312Z,100609.28
2019-02-26T14:39:05.879Z,100599.59
2019-02-26T14:44:17.136Z,100596.08
2019-02-26T14:49:22.763Z,100601.12
2019-02-26T14:54:32.972Z,100603.34
2019-02-26T14:59:48.164Z,100601.50
2019-02-26T15:04:53.812Z,100590.14
2019-02-26T15:10:00.470Z,100597.59
2019-02-26T15:15:10.774Z,100603.40
2019-02-26T15:20:18.101Z,100612.26
2019-02-26T15:25:24.806Z,100607.88
2019-02-26T15:30:30.412Z,100617.54
2019-02-26T15:35:35.980Z,100622.03
2019-02-26T15:40:42.538Z,100614.78
2019-02-26T15:45:52.065Z,100607.98
2019-02-26T15:50:55.514Z,100611.39
2019-02-26T15:56:02.114Z,100609.48
2019-02-26T16:01:15.756Z,100612.95
2019-02-26T16:06:21.479Z,100611.77
2019-02-26T16:11:27.095Z,100604.54
2019-02-26T16:16:34.471Z,100617.02
2019-02-26T16:21:40.260Z,100619.38
2019-02-26T16:26:46.041Z,100622.58
2019-02-26T16:31:52.101Z,100614.70
2019-02-26T16:36:57.818Z,100613.19
2019-02-26T16:42:05.444Z,100604.92
2019-02-26T16:47:12.653Z,100605.20
2019-02-26T16:52:19.558Z,100601.31
2019-02-26T16:57:28.184Z,100594.99
2019-02-26T17:02:34.500Z,100608.00
2019-02-26T17:07:45.030Z,100620.42
2019-02-26T17:12:54.147Z,100607.34
2019-02-26T17:18:10.357Z,100612.92
2019-02-26T17:23:21.938Z,100619.41
2019-02-26T17:28:30.812Z,100620.70
2019-02-26T17:33:36.822Z,100613.84
2019-02-26T17:38:45.556Z,100612.77
2019-02-26T17:43:53.937Z,100621.47
2019-02-26T17:49:02.625Z,100621.86
2019-02-26T17:54:19.405Z,100626.64
2019-02-26T17:59:33.107Z,100634.10
2019-02-26T18:04:40.307Z,100634.77
2019-02-26T18:09:46.028Z,100638.93
2019-02-26T18:14:56.095Z,100642.20
2019-02-26T18:20:02.026Z,100643.25
2019-02-26T18:25:11.995Z,100640.77
2019-02-26T18:30:22.171Z,100646.43
2019-02-26T18:35:32.240Z,100650.96
2019-02-26T18:40:40.617Z,100651.66
2019-02-26T18:45:48.612Z,100667.42
2019-02-26T18:50:56.104Z,100676.46
2019-02-26T18:56:05.473Z,100688.47
2019-02-26T19:01:11.312Z,100678.73
2019-02-26T19:06:18.498Z,100659.41
2019-02-26T19:11:26.115Z,100677.67
2019-02-26T19:16:37.554Z,100676.69
2019-02-26T19:21:46.932Z,100678.25
2019-02-26T19:26:53.981Z,100676.44
2019-02-26T19:32:04.781Z,100680.55
2019-02-26T19:37:12.300Z,100668.73
2019-02-26T19:42:21.099Z,100674.00
2019-02-26T19:47:29.087Z,100678.73
2019-02-26T19:52:34.853Z,100670.09
2019-02-26T19:57:41.705Z,100675.45
2019-02-26T20:02:48.281Z,100674.72
2019-02-26T20:07:58.437Z,100666.47
2019-02-26T20:13:12.294Z,100661.55
2019-02-26T20:18:20.649Z,100662.53
2019-02-26T20:23:24.176Z,100656.61
2019-02-26T20:28:29.927Z,100652.11
2019-02-26T20:33:36.346Z,100646.64
2019-02-26T20:38:42.114Z,100650.18
2019-02-26T20:43:53.778Z,100651.77
2019-02-26T20:49:05.785Z,100655.86
2019-02-26T20:54:16.840Z,100650.09
2019-02-26T20:59:23.236Z,100642.69
2019-02-26T21:04:28.978Z,100643.55
2019-02-26T21:09:40.768Z,100628.28
2019-02-26T21:14:44.331Z,100630.23
2019-02-26T21:19:50.059Z,100628.27
2019-02-26T21:24:56.636Z,100622.91
2019-02-26T21:30:11.827Z,100616.44
2019-02-26T21:35:20.675Z,100619.38
2019-02-26T21:40:33.331Z,100614.89
2019-02-26T21:45:39.792Z,100612.77
2019-02-26T21:50:47.727Z,100607.39
2019-02-26T21:55:53.405Z,100599.91
2019-02-26T22:01:02.164Z,100588.41
2019-02-26T22:06:11.039Z,100588.94
2019-02-26T22:11:19.170Z,100587.81
2019-02-26T22:16:25.102Z,100587.05
2019-02-26T22:21:31.465Z,100584.14
2019-02-26T22:26:37.145Z,100593.42
2019-02-26T22:31:42.838Z,100589.13
2019-02-26T22:36:48.595Z,100587.39
2019-02-26T22:41:54.219Z,100583.45
2019-02-26T22:47:00.233Z,100580.26
2019-02-26T22:52:10.917Z,100585.31
2019-02-26T22:57:18.645Z,100581.86
2019-02-26T23:02:24.885Z,100580.31
2019-02-26T23:07:30.409Z,100585.73
2019-02-26T23:12:36.238Z,100586.17
2019-02-26T23:17:41.812Z,100587.93
2019-02-26T23:22:47.503Z,100589.21
2019-02-26T23:27:55.692Z,100590.95
2019-02-26T23:33:03.113Z,100585.09
2019-02-26T23:38:11.452Z,100592.01
2019-02-26T23:43:17.449Z,100589.44
2019-02-26T23:54:07.185Z,100589.00
2019-02-26T23:59:15.804Z,100601.87
